Time;durP1;ratioP1;P1;durP2;ratioP2;P2;SDS_P1;SDS_P2;PMS_P1;PMS_P2;Temp;Humidity;BMP_temperature;BMP_pressure;BME280_temperature;BME280_humidity;BME280_pressure;Samples;Min_cycle;Max_cycle;Signal;HPM_P1;HPM_P2
2023/12/21 00:02:08;;;;;;;35.20;21.30;;;;;;;15.33;57.41;100559.88;110632;1254;22288;-55
2023/12/21 00:04:35;;;;;;;29.30;19.70;;;;;;;15.33;57.38;100563.20;110588;1254;22112;-55
2023/12/21 00:07:02;;;;;;;34.90;21.90;;;;;;;15.35;57.45;100572.23;110440;1269;22177;-55
2023/12/21 00:09:29;;;;;;;33.80;21.40;;;;;;;15.35;57.44;100588.95;110427;1263;22300;-55
2023/12/21 00:11:56;;;;;;;29.80;21.50;;;;;;;15.35;57.31;100585.13;110655;1263;22334;-55
2023/12/21 00:14:29;;;;;;;33.80;23.20;;;;;;;15.37;57.23;100582.09;110422;1266;22410;-55
2023/12/21 00:16:57;;;;;;;33.50;22.70;;;;;;;15.37;57.10;100577.02;109906;1253;1006972;-55
2023/12/21 00:19:24;;;;;;;38.10;25.20;;;;;;;15.37;56.97;100572.49;109967;1263;1002646;-55
2023/12/21 00:21:51;;;;;;;38.00;25.30;;;;;;;15.38;56.84;100580.84;110533;1257;22459;-55
2023/12/21 00:24:18;;;;;;;36.90;25.70;;;;;;;15.38;56.74;100596.52;110443;1268;22480;-56
2023/12/21 00:26:44;;;;;;;34.90;24.70;;;;;;;15.39;56.64;100608.22;109841;1257;1002416;-55
2023/12/21 00:29:11;;;;;;;39.10;26.30;;;;;;;15.39;56.62;100610.29;110642;1254;22127;-55
2023/12/21 00:31:38;;;;;;;33.70;24.90;;;;;;;15.39;56.53;100612.55;110283;1260;22383;-55
2023/12/21 00:34:05;;;;;;;36.30;26.40;;;;;;;15.39;56.45;100601.59;110276;1262;22407;-55
2023/12/21 00:36:32;;;;;;;36.10;25.20;;;;;;;15.39;56.41;100593.89;110635;1263;22226;-56
2023/12/21 00:38:59;;;;;;;35.90;27.10;;;;;;;15.39;56.27;100591.97;110608;1256;23170;-55
2023/12/21 00:41:27;;;;;;;38.00;27.30;;;;;;;15.38;56.17;100585.00;110635;1256;22744;-55
2023/12/21 00:43:53;;;;;;;32.90;25.00;;;;;;;15.38;56.10;100577.16;110626;1257;22298;-55
2023/12/21 00:46:20;;;;;;;40.80;26.80;;;;;;;15.36;56.09;100585.45;110624;1257;23157;-55
2023/12/21 00:48:47;;;;;;;37.50;25.90;;;;;;;15.35;56.00;100588.14;110689;1263;22359;-55
2023/12/21 00:51:14;;;;;;;33.60;24.50;;;;;;;15.34;55.98;100582.56;110634;1260;22136;-55
2023/12/21 00:53:41;;;;;;;36.90;24.90;;;;;;;15.33;55.96;100571.23;110624;1257;22107;-55
2023/12/21 00:56:08;;;;;;;36.70;25.40;;;;;;;15.33;55.97;100562.67;110637;1263;22597;-55
2023/12/21 00:58:35;;;;;;;41.70;26.10;;;;;;;15.34;55.98;100563.16;110640;1256;22429;-55
2023/12/21 01:01:02;;;;;;;38.30;26.40;;;;;;;15.34;55.83;100560.70;110689;1263;23118;-55
2023/12/21 01:03:29;;;;;;;33.90;25.90;;;;;;;15.34;55.81;100557.58;110640;1256;22144;-55
2023/12/21 01:05:56;;;;;;;38.30;26.10;;;;;;;15.33;55.80;100552.20;110448;1272;22371;-55
2023/12/21 01:08:23;;;;;;;37.70;26.10;;;;;;;15.33;55.65;100545.39;110622;1260;22122;-55
2023/12/21 01:10:52;;;;;;;37.60;25.50;;;;;;;15.31;55.67;100541.95;110524;1257;22324;-55
2023/12/21 01:13:19;;;;;;;35.50;26.30;;;;;;;15.31;55.49;100545.83;110607;1257;22124;-55
2023/12/21 01:15:46;;;;;;;40.20;26.80;;;;;;;15.30;55.50;100546.75;110284;1269;22141;-55
2023/12/21 01:18:12;;;;;;;38.60;28.30;;;;;;;15.29;55.38;100543.30;110656;1263;22373;-55
2023/12/21 01:20:39;;;;;;;38.70;27.30;;;;;;;15.28;55.42;100546.46;109881;1260;1002230;-55
2023/12/21 01:23:06;;;;;;;40.50;26.10;;;;;;;15.27;55.32;100544.95;110659;1263;23025;-55
2023/12/21 01:25:33;;;;;;;33.20;24.00;;;;;;;15.25;55.22;100556.42;110653;1267;22416;-55
2023/12/21 01:28:00;;;;;;;34.20;25.20;;;;;;;15.23;55.25;100559.09;110368;1269;22959;-55
2023/12/21 01:30:27;;;;;;;42.00;26.90;;;;;;;15.22;55.13;100560.39;110420;1269;22404;-55
2023/12/21 01:32:54;;;;;;;37.00;26.40;;;;;;;15.20;55.22;100557.14;110702;1259;22183;-55
2023/12/21 01:35:22;;;;;;;30.90;22.50;;;;;;;15.20;55.15;100551.21;110437;1260;22141;-55
2023/12/21 01:37:48;;;;;;;32.10;24.30;;;;;;;15.19;55.06;100559.46;110653;1257;22338;-55
2023/12/21 01:40:16;;;;;;;37.60;26.30;;;;;;;15.17;54.97;100560.78;110479;1259;22391;-55
2023/12/21 01:42:43;;;;;;;34.80;25.20;;;;;;;15.15;54.92;100546.17;110637;1263;23028;-55
2023/12/21 01:45:10;;;;;;;36.70;26.00;;;;;;;15.13;54.89;100549.23;110662;1255;22933;-55
2023/12/21 01:47:37;;;;;;;34.30;24.20;;;;;;;15.11;54.87;100554.41;110666;1263;22138;-55
2023/12/21 01:50:05;;;;;;;35.60;25.00;;;;;;;15.09;54.89;100553.64;110611;1257;22192;-55
2023/12/21 01:52:32;;;;;;;31.50;22.40;;;;;;;15.06;54.81;100564.75;110622;1259;22795;-56
2023/12/21 01:54:58;;;;;;;27.80;21.50;;;;;;;15.04;54.58;100575.16;110536;1260;22364;-55
2023/12/21 01:57:25;;;;;;;28.50;21.70;;;;;;;15.00;54.52;100583.02;110644;1260;23010;-55
2023/12/21 01:59:52;;;;;;;26.80;20.90;;;;;;;14.95;54.48;100585.84;110404;1268;22155;-55
2023/12/21 02:02:19;;;;;;;30.80;21.20;;;;;;;14.91;54.45;100584.80;110255;1262;22343;-55
2023/12/21 02:04:46;;;;;;;31.60;20.80;;;;;;;14.88;54.36;100591.23;110643;1263;22417;-55
2023/12/21 02:07:13;;;;;;;32.80;22.20;;;;;;;14.84;54.37;100595.23;110617;1263;23189;-55
2023/12/21 02:09:40;;;;;;;30.70;21.80;;;;;;;14.80;54.35;100583.18;110425;1267;22456;-55
2023/12/21 02:12:08;;;;;;;27.10;20.10;;;;;;;14.74;54.24;100583.77;110420;1260;22372;-55
2023/12/21 02:14:34;;;;;;;34.40;23.10;;;;;;;14.69;54.27;100586.39;110656;1256;22316;-55
2023/12/21 02:17:12;;;;;;;33.40;23.30;;;;;;;14.66;54.25;100586.34;109866;1267;1002249;-55
2023/12/21 02:19:39;;;;;;;36.00;23.00;;;;;;;14.63;54.24;100578.95;110633;1258;22915;-55
2023/12/21 02:22:06;;;;;;;27.40;20.80;;;;;;;14.60;54.16;100576.63;110558;1260;22275;-55
2023/12/21 02:24:33;;;;;;;28.50;19.80;;;;;;;14.56;54.00;100565.80;110589;1256;22903;-56
2023/12/21 02:27:00;;;;;;;31.40;20.30;;;;;;;14.52;53.91;100564.41;110418;1260;23541;-55
2023/12/21 02:29:27;;;;;;;30.20;21.10;;;;;;;14.48;53.95;100565.62;109846;1257;1002440;-55
2023/12/21 02:31:53;;;;;;;31.80;22.20;;;;;;;14.45;54.02;100559.45;110636;1263;23143;-55
2023/12/21 02:34:21;;;;;;;29.80;21.50;;;;;;;14.44;54.04;100551.32;110652;1255;22953;-55
2023/12/21 02:36:48;;;;;;;30.60;22.70;;;;;;;14.43;53.98;100545.77;110642;1256;22114;-55
2023/12/21 02:39:14;;;;;;;32.10;22.40;;;;;;;14.42;54.09;100549.67;110692;1254;22547;-55
2023/12/21 02:41:41;;;;;;;28.70;21.60;;;;;;;14.40;54.02;100546.77;110690;1265;22125;-55
2023/12/21 02:44:08;;;;;;;32.40;23.80;;;;;;;14.38;53.89;100541.96;110458;1260;22258;-55
2023/12/21 02:46:35;;;;;;;33.60;22.90;;;;;;;14.31;53.68;100528.10;110729;1256;22130;-55
2023/12/21 02:49:02;;;;;;;32.80;22.60;;;;;;;14.24;53.65;100538.13;110614;1257;22880;-55
2023/12/21 02:51:29;;;;;;;34.20;23.50;;;;;;;14.13;53.56;100537.20;110676;1257;22264;-55
2023/12/21 02:53:56;;;;;;;31.20;21.90;;;;;;;14.04;53.79;100542.27;110654;1265;22117;-55
2023/12/21 02:56:23;;;;;;;27.80;19.80;;;;;;;13.97;53.70;100543.92;110682;1257;22347;-56
2023/12/21 02:58:49;;;;;;;26.60;20.20;;;;;;;13.84;53.64;100543.73;110672;1256;22401;-55
2023/12/21 03:01:16;;;;;;;28.30;20.00;;;;;;;13.70;53.76;100545.33;110591;1256;22178;-55
2023/12/21 03:03:43;;;;;;;29.50;20.70;;;;;;;13.58;54.00;100543.88;109877;1266;1002436;-55
2023/12/21 03:06:10;;;;;;;26.70;19.60;;;;;;;13.47;54.23;100534.50;110660;1267;22158;-55
2023/12/21 03:08:37;;;;;;;29.20;21.70;;;;;;;13.38;54.35;100530.52;110650;1260;22450;-56
2023/12/21 03:11:04;;;;;;;29.60;21.70;;;;;;;13.28;54.60;100528.27;110621;1257;22384;-56
2023/12/21 03:13:30;;;;;;;32.00;21.10;;;;;;;13.20;54.76;100524.23;110601;1255;22811;-55
2023/12/21 03:15:57;;;;;;;30.60;21.40;;;;;;;13.12;54.84;100522.39;110667;1263;22401;-56
2023/12/21 03:18:24;;;;;;;30.20;22.80;;;;;;;13.05;55.09;100526.63;110652;1266;22147;-55
2023/12/21 03:20:51;;;;;;;32.50;21.90;;;;;;;13.00;55.25;100523.83;110431;1258;22304;-55
2023/12/21 03:23:17;;;;;;;34.00;23.90;;;;;;;12.98;55.43;100522.52;110674;1256;22384;-55
2023/12/21 03:25:44;;;;;;;33.10;23.40;;;;;;;12.97;55.61;100523.22;110639;1263;22139;-55
2023/12/21 03:28:14;;;;;;;34.20;25.30;;;;;;;12.96;55.60;100528.16;110630;1263;22201;-55
2023/12/21 03:30:40;;;;;;;36.20;24.70;;;;;;;12.92;55.58;100530.05;110491;1266;22834;-55
2023/12/21 03:33:07;;;;;;;35.20;23.40;;;;;;;12.85;55.56;100525.75;110653;1263;22184;-54
2023/12/21 03:35:34;;;;;;;28.50;22.00;;;;;;;12.78;55.52;100536.09;109874;1267;1002031;-55
2023/12/21 03:38:01;;;;;;;31.70;23.30;;;;;;;12.69;55.66;100540.73;110654;1263;22143;-55
2023/12/21 03:40:28;;;;;;;29.80;22.10;;;;;;;12.64;55.83;100543.54;110636;1256;22810;-55
2023/12/21 03:42:55;;;;;;;29.50;22.30;;;;;;;12.61;55.92;100547.46;110446;1264;23135;-54
2023/12/21 03:45:21;;;;;;;28.00;21.40;;;;;;;12.58;55.93;100541.98;109875;1257;1002749;-54
2023/12/21 03:47:49;;;;;;;30.80;22.70;;;;;;;12.53;55.94;100534.17;110664;1267;22332;-55
2023/12/21 03:50:16;;;;;;;29.10;22.10;;;;;;;12.48;56.15;100535.55;109831;1255;1002843;-54
2023/12/21 03:52:42;;;;;;;32.30;23.80;;;;;;;12.47;56.21;100541.34;110699;1257;22190;-55
2023/12/21 03:55:09;;;;;;;32.40;24.20;;;;;;;12.46;56.25;100544.14;110447;1274;22603;-54
2023/12/21 03:57:36;;;;;;;30.20;23.70;;;;;;;12.45;56.28;100555.30;110637;1267;22145;-55
2023/12/21 04:00:05;;;;;;;29.20;23.10;;;;;;;12.44;56.25;100548.38;110683;1263;23165;-55
2023/12/21 04:02:34;;;;;;;29.70;23.50;;;;;;;12.43;56.19;100541.48;110735;1257;23125;-55
2023/12/21 04:05:01;;;;;;;33.20;25.10;;;;;;;12.43;56.20;100538.16;110641;1263;22518;-54
2023/12/21 04:07:28;;;;;;;32.40;24.60;;;;;;;12.43;56.26;100535.72;110531;1266;22157;-55
2023/12/21 04:09:55;;;;;;;31.30;25.20;;;;;;;12.42;56.32;100538.73;110643;1257;22390;-54
2023/12/21 04:12:22;;;;;;;33.80;25.70;;;;;;;12.42;56.37;100547.59;110435;1257;22166;-54
2023/12/21 04:14:49;;;;;;;32.00;25.10;;;;;;;12.44;56.32;100556.03;110680;1256;22263;-55
2023/12/21 04:17:16;;;;;;;35.30;26.90;;;;;;;12.45;56.22;100560.52;109823;1264;1006475;-54
2023/12/21 04:19:43;;;;;;;36.00;28.50;;;;;;;12.44;56.34;100565.45;110579;1269;22339;-55
2023/12/21 04:22:09;;;;;;;36.70;27.00;;;;;;;12.44;56.37;100567.18;110677;1264;23027;-54
2023/12/21 04:24:36;;;;;;;38.90;28.20;;;;;;;12.43;56.32;100572.93;110576;1255;22301;-54
2023/12/21 04:27:03;;;;;;;36.70;27.70;;;;;;;12.42;56.31;100574.54;109844;1256;1002335;-55
2023/12/21 04:29:30;;;;;;;36.00;27.70;;;;;;;12.38;56.24;100580.40;110664;1257;22867;-55
2023/12/21 04:31:57;;;;;;;37.00;28.00;;;;;;;12.35;56.31;100576.70;110402;1266;22414;-55
2023/12/21 04:34:24;;;;;;;37.50;27.60;;;;;;;12.32;56.33;100579.40;109678;1266;1002133;-55
2023/12/21 04:36:51;;;;;;;38.40;27.70;;;;;;;12.29;56.26;100575.14;110654;1266;22321;-54
2023/12/21 04:39:18;;;;;;;40.00;29.60;;;;;;;12.24;56.19;100579.11;110637;1251;22790;-55
2023/12/21 04:41:45;;;;;;;34.60;27.50;;;;;;;12.16;56.23;100580.05;110662;1256;22163;-54
2023/12/21 04:44:12;;;;;;;36.30;28.40;;;;;;;12.12;56.44;100580.20;110460;1266;23064;-54
2023/12/21 04:46:38;;;;;;;35.70;27.10;;;;;;;12.08;56.47;100586.23;109888;1251;1002091;-55
2023/12/21 04:49:06;;;;;;;34.10;26.00;;;;;;;12.02;56.51;100589.88;110602;1257;22172;-55
2023/12/21 04:51:33;;;;;;;33.80;26.90;;;;;;;11.98;56.61;100596.80;110666;1255;22404;-56
2023/12/21 04:54:00;;;;;;;35.30;26.40;;;;;;;11.93;56.54;100599.73;110553;1253;22125;-54
2023/12/21 04:56:26;;;;;;;31.50;24.00;;;;;;;11.88;56.47;100600.05;110596;1254;22275;-55
2023/12/21 04:58:53;;;;;;;28.80;23.40;;;;;;;11.84;56.51;100600.70;110656;1263;22599;-54
2023/12/21 05:01:20;;;;;;;31.20;23.60;;;;;;;11.81;56.55;100608.27;110440;1257;23101;-54
2023/12/21 05:03:47;;;;;;;32.40;25.00;;;;;;;11.78;56.45;100609.92;110665;1254;22372;-55
2023/12/21 05:06:14;;;;;;;29.50;23.20;;;;;;;11.75;56.55;100614.87;110647;1251;23054;-55
2023/12/21 05:08:41;;;;;;;29.90;23.90;;;;;;;11.74;56.54;100616.29;110369;1260;22100;-54
2023/12/21 05:11:08;;;;;;;29.30;23.50;;;;;;;11.70;56.48;100612.59;110594;1255;22314;-55
2023/12/21 05:13:35;;;;;;;32.90;23.70;;;;;;;11.65;56.53;100615.11;110747;1260;23169;-55
2023/12/21 05:16:02;;;;;;;32.70;24.60;;;;;;;11.61;56.62;100619.92;110588;1256;22375;-55
2023/12/21 05:18:29;;;;;;;29.30;22.90;;;;;;;11.58;56.74;100614.98;110624;1257;22310;-55
2023/12/21 05:20:56;;;;;;;33.80;25.30;;;;;;;11.53;56.71;100623.27;109883;1251;1002297;-54
2023/12/21 05:23:22;;;;;;;32.80;24.10;;;;;;;11.48;56.91;100629.84;110684;1255;22384;-54
2023/12/21 05:25:50;;;;;;;33.10;25.20;;;;;;;11.45;56.95;100622.45;110661;1261;22994;-55
2023/12/21 05:28:16;;;;;;;31.50;23.80;;;;;;;11.42;57.09;100624.10;110675;1264;22270;-54
2023/12/21 05:30:43;;;;;;;33.80;24.80;;;;;;;11.40;57.03;100627.63;110648;1254;22333;-54
2023/12/21 05:33:10;;;;;;;30.70;24.90;;;;;;;11.35;56.95;100630.52;110652;1257;22378;-54
2023/12/21 05:35:37;;;;;;;30.20;23.90;;;;;;;11.30;57.10;100628.59;110623;1251;22144;-55
2023/12/21 05:38:04;;;;;;;31.40;24.10;;;;;;;11.26;57.24;100620.17;110637;1259;22351;-55
2023/12/21 05:40:30;;;;;;;32.30;25.60;;;;;;;11.20;57.05;100619.31;110592;1261;22339;-54
2023/12/21 05:42:57;;;;;;;29.20;21.90;;;;;;;11.12;57.14;100620.20;110656;1257;22401;-55
2023/12/21 05:45:24;;;;;;;32.80;23.60;;;;;;;11.08;57.30;100618.94;110578;1254;22155;-54
2023/12/21 05:47:51;;;;;;;29.00;22.30;;;;;;;11.05;57.36;100619.00;110398;1257;22399;-54
2023/12/21 05:50:18;;;;;;;30.40;22.70;;;;;;;11.03;57.43;100622.34;109916;1261;1002949;-55
2023/12/21 05:52:45;;;;;;;29.10;23.50;;;;;;;11.02;57.41;100637.33;110679;1267;23204;-55
2023/12/21 05:55:15;;;;;;;25.50;21.30;;;;;;;11.02;57.53;100638.70;109890;1260;1002401;-54
2023/12/21 05:57:43;;;;;;;28.70;22.00;;;;;;;11.02;57.44;100638.52;110653;1266;22216;-54
2023/12/21 06:00:11;;;;;;;29.10;23.20;;;;;;;10.99;57.22;100639.83;110327;1261;22313;-54
2023/12/21 06:02:39;;;;;;;25.10;21.10;;;;;;;10.93;57.17;100636.48;110687;1250;23047;-54
2023/12/21 06:05:06;;;;;;;24.30;20.40;;;;;;;10.90;57.26;100643.17;110629;1251;22494;-54
2023/12/21 06:07:33;;;;;;;24.50;21.80;;;;;;;10.88;57.18;100646.17;110619;1262;22192;-55
2023/12/21 06:09:59;;;;;;;22.90;20.10;;;;;;;10.84;57.13;100642.98;109884;1251;1003041;-54
2023/12/21 06:12:26;;;;;;;21.60;19.30;;;;;;;10.82;57.06;100646.49;110607;1251;22440;-53
2023/12/21 06:14:53;;;;;;;24.50;19.20;;;;;;;10.79;57.13;100641.73;110650;1259;23037;-54
2023/12/21 06:17:20;;;;;;;23.00;19.20;;;;;;;10.75;56.89;100646.14;110649;1251;22115;-54
2023/12/21 06:19:47;;;;;;;22.30;18.60;;;;;;;10.70;56.76;100647.13;110488;1260;22244;-54
2023/12/21 06:22:14;;;;;;;22.00;18.00;;;;;;;10.65;56.90;100648.13;110759;1251;22323;-54
2023/12/21 06:24:41;;;;;;;21.70;17.40;;;;;;;10.61;56.75;100646.65;109885;1260;1002916;-54
2023/12/21 06:27:08;;;;;;;24.90;17.50;;;;;;;10.59;56.87;100644.78;110629;1254;22136;-54
2023/12/21 06:29:35;;;;;;;20.80;18.50;;;;;;;10.61;56.90;100646.67;110673;1264;22342;-54
2023/12/21 06:32:03;;;;;;;22.00;18.20;;;;;;;10.61;56.79;100646.84;110657;1254;22148;-54
2023/12/21 06:34:30;;;;;;;22.40;18.50;;;;;;;10.62;56.77;100642.14;109862;1254;1006797;-54
2023/12/21 06:36:57;;;;;;;21.50;17.90;;;;;;;10.61;56.86;100643.20;110647;1254;22332;-55
2023/12/21 06:39:24;;;;;;;19.70;17.50;;;;;;;10.59;56.83;100642.37;110644;1262;22208;-53
2023/12/21 06:41:52;;;;;;;22.80;17.10;;;;;;;10.55;56.71;100645.25;110634;1263;22285;-54
2023/12/21 06:44:18;;;;;;;20.80;17.20;;;;;;;10.52;56.77;100652.24;110549;1270;22163;-54
2023/12/21 06:46:46;;;;;;;22.60;17.40;;;;;;;10.51;56.81;100655.22;110638;1263;22882;-54
2023/12/21 06:49:13;;;;;;;18.90;16.90;;;;;;;10.51;56.88;100664.58;110335;1260;22148;-54
2023/12/21 06:51:41;;;;;;;18.40;16.50;;;;;;;10.53;56.82;100670.96;110648;1257;22154;-54
2023/12/21 06:54:08;;;;;;;20.50;17.00;;;;;;;10.56;56.91;100672.99;110609;1250;22331;-54
2023/12/21 06:56:35;;;;;;;18.90;15.60;;;;;;;10.59;56.79;100671.51;110644;1260;22121;-53
2023/12/21 06:59:03;;;;;;;19.10;16.50;;;;;;;10.65;56.74;100668.77;110725;1260;22115;-54
2023/12/21 07:01:30;;;;;;;19.40;16.80;;;;;;;10.68;56.43;100672.70;110670;1254;22339;-54
2023/12/21 07:03:57;;;;;;;20.30;16.80;;;;;;;10.68;56.37;100676.15;109965;1254;1002328;-54
2023/12/21 07:06:27;;;;;;;20.50;16.50;;;;;;;10.71;56.38;100671.23;110682;1266;22151;-54
2023/12/21 07:08:54;;;;;;;20.20;17.50;;;;;;;10.72;56.08;100680.05;110586;1263;22254;-54
2023/12/21 07:11:22;;;;;;;21.10;17.10;;;;;;;10.72;55.96;100688.89;110646;1255;22837;-55
2023/12/21 07:13:49;;;;;;;22.00;18.10;;;;;;;10.74;55.93;100691.12;109839;1268;1002159;-54
2023/12/21 07:16:16;;;;;;;21.00;18.10;;;;;;;10.76;55.80;100686.38;110692;1250;22300;-54
2023/12/21 07:18:43;;;;;;;23.90;18.00;;;;;;;10.78;55.53;100681.98;110577;1274;22118;-55
2023/12/21 07:21:10;;;;;;;21.20;17.80;;;;;;;10.79;55.39;100682.84;110609;1256;23073;-55
2023/12/21 07:23:37;;;;;;;22.20;18.00;;;;;;;10.81;55.24;100683.84;110703;1263;22293;-55
2023/12/21 07:26:04;;;;;;;21.40;17.90;;;;;;;10.80;55.11;100682.27;110622;1274;23074;-55
2023/12/21 07:28:31;;;;;;;20.20;18.00;;;;;;;10.82;55.21;100679.63;110452;1254;22420;-54
2023/12/21 07:31:01;;;;;;;23.00;19.10;;;;;;;10.86;55.14;100683.02;110449;1257;22445;-55
2023/12/21 07:33:28;;;;;;;23.50;18.90;;;;;;;10.90;55.05;100686.03;110636;1250;22401;-56
2023/12/21 07:35:55;;;;;;;19.70;17.60;;;;;;;10.93;54.89;100691.67;110610;1251;22145;-55
2023/12/21 07:38:22;;;;;;;21.70;17.30;;;;;;;10.96;54.85;100693.36;110530;1270;22102;-56
2023/12/21 07:40:51;;;;;;;22.60;17.90;;;;;;;10.98;54.87;100696.61;110686;1250;22203;-55
2023/12/21 07:43:19;;;;;;;21.40;17.50;;;;;;;10.99;54.64;100697.44;110494;1254;22281;-55
2023/12/21 07:45:46;;;;;;;19.70;16.30;;;;;;;11.00;54.62;100696.39;110694;1250;22893;-54
2023/12/21 07:48:12;;;;;;;18.60;16.10;;;;;;;11.03;54.57;100696.30;109843;1266;1002881;-54
2023/12/21 07:50:39;;;;;;;19.40;16.40;;;;;;;11.07;54.52;100694.30;110712;1254;22924;-55
2023/12/21 07:53:06;;;;;;;17.40;15.50;;;;;;;11.08;54.43;100698.28;110713;1263;22279;-54
2023/12/21 07:55:33;;;;;;;20.40;16.60;;;;;;;11.09;54.49;100702.40;110636;1254;22320;-55
2023/12/21 07:58:00;;;;;;;21.50;15.70;;;;;;;11.11;54.40;100695.74;110674;1260;22106;-55
2023/12/21 08:00:27;;;;;;;17.20;15.30;;;;;;;11.13;54.29;100696.21;110443;1269;22477;-55
2023/12/21 08:02:54;;;;;;;19.40;15.60;;;;;;;11.15;54.27;100687.48;110650;1254;23119;-55
2023/12/21 08:05:23;;;;;;;17.20;15.30;;;;;;;11.19;54.29;100684.79;110476;1266;22753;-55
2023/12/21 08:07:50;;;;;;;17.90;15.00;;;;;;;11.24;54.26;100679.80;110598;1274;22117;-54
2023/12/21 08:10:17;;;;;;;18.60;15.70;;;;;;;11.28;54.22;100683.50;110611;1274;22382;-55
2023/12/21 08:12:44;;;;;;;18.50;16.40;;;;;;;11.25;53.80;100687.06;110683;1254;22390;-54
2023/12/21 08:15:11;;;;;;;19.90;16.90;;;;;;;11.14;53.86;100686.30;110677;1257;23010;-55
2023/12/21 08:17:43;;;;;;;18.70;16.00;;;;;;;11.02;54.11;100689.91;110692;1253;23125;-55
2023/12/21 08:20:12;;;;;;;18.30;15.50;;;;;;;10.96;54.50;100699.61;110464;1257;22131;-54
2023/12/21 08:22:39;;;;;;;17.30;15.20;;;;;;;10.98;54.83;100703.73;110673;1254;22120;-54
2023/12/21 08:25:07;;;;;;;20.10;16.60;;;;;;;11.03;54.94;100705.85;110594;1267;22280;-54
2023/12/21 08:27:37;;;;;;;20.70;17.00;;;;;;;11.08;54.83;100720.85;109818;1267;1003022;-54
2023/12/21 08:30:06;;;;;;;19.20;15.70;;;;;;;11.13;54.77;100725.73;110188;1257;22125;-55
2023/12/21 08:32:34;;;;;;;19.60;16.60;;;;;;;11.20;54.55;100726.10;110605;1268;22370;-54
2023/12/21 08:35:01;;;;;;;19.30;16.10;;;;;;;11.23;54.16;100728.27;110598;1274;23208;-54
2023/12/21 08:37:28;;;;;;;19.60;16.30;;;;;;;11.22;53.75;100723.95;110649;1258;22111;-54
2023/12/21 08:39:55;;;;;;;19.50;15.30;;;;;;;11.21;53.82;100726.95;109843;1269;1002091;-54
2023/12/21 08:42:23;;;;;;;19.10;15.00;;;;;;;11.24;53.69;100724.96;110452;1263;22330;-55
2023/12/21 08:44:50;;;;;;;19.30;15.80;;;;;;;11.28;53.68;100725.02;110646;1267;22278;-54
2023/12/21 08:47:17;;;;;;;17.70;15.50;;;;;;;11.35;53.63;100725.00;110640;1254;23238;-54
2023/12/21 08:49:43;;;;;;;19.00;15.50;;;;;;;11.44;53.27;100727.90;110673;1253;22258;-55
2023/12/21 08:52:10;;;;;;;17.10;14.20;;;;;;;11.47;52.85;100720.89;110658;1266;22135;-54
2023/12/21 08:56:03;;;;;;;16.60;14.70;;;;;;;10.83;54.28;100716.04;104773;1295;561969;-55
2023/12/21 08:58:31;;;;;;;19.60;15.70;;;;;;;11.10;53.61;100715.56;105991;1275;22544;-55
2023/12/21 09:00:58;;;;;;;15.80;13.70;;;;;;;11.09;53.65;100714.38;106283;1274;25340;-53
2023/12/21 09:03:26;;;;;;;18.20;15.30;;;;;;;11.08;53.66;100717.00;106553;1262;22554;-53
2023/12/21 09:05:53;;;;;;;18.40;15.40;;;;;;;10.94;54.05;100711.98;106587;1262;25342;-55
2023/12/21 09:08:20;;;;;;;17.80;15.60;;;;;;;10.96;54.06;100709.14;106455;1259;336470;-54
2023/12/21 09:10:47;;;;;;;17.50;14.40;;;;;;;11.02;53.64;100706.91;106619;1271;25364;-54
2023/12/21 09:13:14;;;;;;;18.60;14.20;;;;;;;10.98;53.46;100703.37;106332;1259;22523;-54
2023/12/21 09:15:41;;;;;;;16.60;14.20;;;;;;;10.93;53.76;100696.02;106519;1272;25394;-53
2023/12/21 09:18:12;;;;;;;16.70;14.90;;;;;;;10.92;53.96;100691.55;106620;1270;25401;-55
2023/12/21 09:20:39;;;;;;;16.70;14.60;;;;;;;10.91;53.83;100686.89;106782;1260;24233;-54
2023/12/21 09:23:06;;;;;;;20.30;14.10;;;;;;;10.90;53.96;100677.88;106877;1264;25387;-54
2023/12/21 09:25:33;;;;;;;16.60;13.70;;;;;;;10.89;54.08;100673.05;106920;1270;24347;-55
2023/12/21 09:28:02;;;;;;;16.50;14.70;;;;;;;10.87;54.13;100674.48;106729;1267;24334;-54
2023/12/21 09:30:30;;;;;;;16.30;13.70;;;;;;;10.88;54.17;100677.58;106863;1272;22633;-54
2023/12/21 09:32:59;;;;;;;15.70;12.90;;;;;;;10.89;54.22;100684.84;106070;1260;1002895;-55
2023/12/21 09:35:26;;;;;;;19.80;13.90;;;;;;;10.90;54.22;100688.63;107026;1270;22529;-54
2023/12/21 09:37:53;;;;;;;17.20;12.80;;;;;;;10.92;54.17;100689.80;107165;1265;25482;-54
2023/12/21 09:40:22;;;;;;;15.70;12.90;;;;;;;10.93;54.05;100688.21;107135;1266;26177;-54
2023/12/21 09:42:50;;;;;;;15.20;13.00;;;;;;;10.95;53.95;100680.36;106846;1267;25394;-54
2023/12/21 09:45:32;;;;;;;15.60;12.50;;;;;;;10.94;53.99;100683.16;107036;1256;25345;-52
2023/12/21 09:47:59;;;;;;;15.50;12.60;;;;;;;10.95;54.20;100675.84;106762;1272;26622;-54
2023/12/21 09:50:27;;;;;;;17.60;12.80;;;;;;;10.98;54.18;100674.56;106833;1256;25354;-54
2023/12/21 09:52:54;;;;;;;14.40;12.10;;;;;;;10.99;54.18;100667.93;106764;1272;25319;-54
2023/12/21 09:55:21;;;;;;;16.30;12.60;;;;;;;11.05;54.31;100664.14;106898;1266;25399;-53
2023/12/21 09:57:48;;;;;;;16.50;12.50;;;;;;;11.13;54.22;100654.73;106538;1260;22518;-55
2023/12/21 10:00:16;;;;;;;15.00;12.90;;;;;;;11.20;54.13;100652.98;106912;1268;22692;-53
2023/12/21 10:02:43;;;;;;;16.00;12.90;;;;;;;11.27;54.00;100646.70;107155;1255;22746;-53
2023/12/21 10:05:11;;;;;;;14.00;11.40;;;;;;;11.32;53.73;100640.69;106968;1255;25409;-53
2023/12/21 10:07:39;;;;;;;12.70;10.90;;;;;;;11.43;53.34;100639.67;107166;1256;25312;-53
2023/12/21 10:10:08;;;;;;;13.80;11.40;;;;;;;11.59;52.72;100637.00;107149;1257;24253;-53
2023/12/21 10:12:35;;;;;;;15.00;11.30;;;;;;;11.63;52.67;100632.55;106307;1258;1003528;-53
2023/12/21 10:15:04;;;;;;;13.20;11.30;;;;;;;11.64;52.69;100626.28;106484;1266;1003099;-53
2023/12/21 10:17:34;;;;;;;12.00;10.70;;;;;;;11.59;52.63;100627.62;107206;1268;22529;-55
2023/12/21 10:20:03;;;;;;;13.60;12.00;;;;;;;11.43;53.04;100624.42;107284;1266;25357;-55
2023/12/21 10:22:35;;;;;;;15.40;13.30;;;;;;;11.40;53.22;100623.78;106273;1270;1002593;-53
2023/12/21 10:25:03;;;;;;;17.30;14.50;;;;;;;11.43;53.25;100616.23;107160;1256;25400;-53
2023/12/21 10:27:30;;;;;;;13.30;11.80;;;;;;;11.44;53.17;100609.09;107033;1266;25279;-53
2023/12/21 10:29:58;;;;;;;11.50;10.30;;;;;;;11.45;53.24;100602.48;106374;1269;25382;-53
2023/12/21 10:32:25;;;;;;;15.10;12.60;;;;;;;11.47;53.22;100593.22;106655;1256;25339;-54
2023/12/21 10:34:54;;;;;;;14.10;11.70;;;;;;;11.52;53.40;100590.31;106940;1271;25412;-54
2023/12/21 10:37:22;;;;;;;13.90;12.40;;;;;;;11.56;53.38;100592.27;106068;1261;1003749;-52
2023/12/21 10:39:49;;;;;;;16.60;13.20;;;;;;;11.60;53.39;100585.72;106788;1268;24235;-54
2023/12/21 10:42:16;;;;;;;14.30;12.40;;;;;;;11.62;53.23;100585.48;107260;1257;25490;-53
2023/12/21 10:44:44;;;;;;;14.20;12.50;;;;;;;11.61;53.15;100587.63;107098;1266;25439;-53
2023/12/21 10:47:12;;;;;;;16.50;12.80;;;;;;;11.55;53.31;100590.20;107366;1256;25242;-53
2023/12/21 10:49:40;;;;;;;15.30;12.20;;;;;;;11.55;53.44;100584.66;107347;1266;25360;-53
2023/12/21 10:52:08;;;;;;;17.30;12.30;;;;;;;11.53;53.22;100577.40;107064;1268;22529;-53
2023/12/21 10:54:34;;;;;;;14.90;12.30;;;;;;;11.47;53.19;100566.63;107254;1266;25332;-53
2023/12/21 10:57:02;;;;;;;17.10;11.90;;;;;;;11.43;53.32;100569.54;107066;1269;25511;-54
2023/12/21 10:59:29;;;;;;;12.10;10.70;;;;;;;11.40;53.48;100568.91;106793;1273;25455;-53
2023/12/21 11:01:56;;;;;;;19.80;12.10;;;;;;;11.41;53.44;100564.53;107050;1258;25357;-53